Sea Voyager — V7QU2 — position and weather

sailwx.info

Track history (hours):
 
Tides and Currents Weather Stations Pressure Air Temp Water Temp Dewpoint Dewpoint Depression Visibility Wind Speed Wind Dir Waves Ship Positions

Sea Voyager

Last reported at 2017-Jun-08 10:16 UTC. Time now 2017-Jun-28 05:13 UTC.
Position N 38°16' E 122°02'.
Warning: this ship's position is 19 days out of date.

Length 243 m; draft 8.4 m.

Type: Ship (hazmat cat A). MMSI: 538003439.

Date/timePositionNaut miles runAvg speedWind from/ knotsBaromVisibWave heightAir tempDewpointWater temp
2017-Jun-08 10:16N 38°16' E 122°02'312.1
2017-Jun-08 10:00N 38°16' E 121°58'612.3
2017-Jun-08 09:30N 38°18' E 121°51'612.4
2017-Jun-08 09:00N 38°19' E 121°43'612.3
2017-Jun-08 08:30N 38°21' E 121°36'612.7
2017-Jun-08 08:00N 38°23' E 121°28'612.6
2017-Jun-08 07:30N 38°25' E 121°20'712.2
2017-Jun-08 06:58N 38°26' E 121°12'  
2017-Jun-04 02:43N 40°02' E 121°20'1613.0
2017-Jun-04 01:29N 39°48' E 121°09'613.4
2017-Jun-04 01:00N 39°43' E 121°04'712.8
2017-Jun-04 00:27N 39°38' E 120°58'612.9
2017-Jun-03 23:59N 39°33' E 120°53'612.6
2017-Jun-03 23:29N 39°28' E 120°49'812.4
2017-Jun-03 22:51N 39°20' E 120°48'1111.9
2017-Jun-03 21:56N 39°09' E 120°48'511.8
2017-Jun-03 21:30N 39°04' E 120°48'611.7
2017-Jun-03 20:59N 38°58' E 120°48'2010.8
2017-Jun-03 19:06N 38°38' E 120°52'311.5
2017-Jun-03 18:52N 38°37' E 120°55'611.4
2017-Jun-03 18:19N 38°33' E 121°02'411.2
2017-Jun-03 18:00N 38°31' E 121°06'511.1
2017-Jun-03 17:30N 38°29' E 121°12'611.4
2017-Jun-03 17:00N 38°28' E 121°19'611.4
2017-Jun-03 16:30N 38°26' E 121°26'611.5
2017-Jun-03 16:00N 38°24' E 121°33'611.4
2017-Jun-03 15:30N 38°23' E 121°40'611.9
2017-Jun-03 15:00N 38°21' E 121°48'611.9
2017-Jun-03 14:30N 38°19' E 121°55'1211.9
2017-Jun-03 13:30N 38°15' E 122°09'611.9
2017-Jun-03 13:00N 38°14' E 122°16'711.8
2017-Jun-03 12:27N 38°11' E 122°24'511.8
2017-Jun-03 12:00N 38°10' E 122°31'611.8
2017-Jun-03 11:29N 38°08' E 122°38'1511.6
2017-Jun-03 10:13N 37°58' E 122°52'311.1
2017-Jun-03 09:58N 37°56' E 122°55'510.7
2017-Jun-03 09:29N 37°53' E 122°59'611.3
2017-Jun-03 08:58N 37°49' E 123°05'612.4
2017-Jun-03 08:30N 37°45' E 123°10'612.5
2017-Jun-03 08:00N 37°40' E 123°16'612.7
2017-Jun-03 07:30N 37°36' E 123°21'1011.9
2017-Jun-03 06:38N 37°26' E 123°25'213.0
2017-Jun-03 06:29N 37°24' E 123°25'24112.6
2017-Jun-02 11:19N 33°23' E 123°32'413.1
2017-Jun-02 11:00N 33°19' E 123°32'1713.0
2017-Jun-02 09:43N 33°03' E 123°33'4212.4
2017-Jun-02 06:18N 32°20' E 123°34'612.0
2017-Jun-02 05:46N 32°14' E 123°33'2011.9
2017-Jun-02 04:07N 31°54' E 123°34'1611.8
2017-Jun-02 02:47N 31°38' E 123°34'311.9
2017-Jun-02 02:30N 31°35' E 123°34'611.8
2017-Jun-02 01:59N 31°29' E 123°34'1012.1
2017-Jun-02 01:08N 31°19' E 123°34'212.4
2017-Jun-02 00:59N 31°17' E 123°34'612.5
2017-Jun-02 00:30N 31°11' E 123°34'612.6
2017-Jun-02 00:00N 31°04' E 123°34'1312.6
2017-Jun-01 22:56N 30°51' E 123°34'  
Track history (hours):
 
Tides and Currents Weather Stations Pressure Air Temp Water Temp Dewpoint Dewpoint Depression Visibility Wind Speed Wind Dir Waves Ship Positions

Sea Voyager

Last reported at 2017-Jun-08 10:16 UTC. Time now 2017-Jun-28 05:13 UTC.
Position N 38°16' E 122°02'.
Warning: this ship's position is 19 days out of date.

Length 243 m; draft 8.4 m.

Type: Ship (hazmat cat A). MMSI: 538003439.

Date/timePositionNaut miles runAvg speedWind from/ knotsBaromVisibWave heightAir tempDewpointWater temp
2017-Jun-08 10:16N 38°16' E 122°02'312.1
2017-Jun-08 10:00N 38°16' E 121°58'612.3
2017-Jun-08 09:30N 38°18' E 121°51'612.4
2017-Jun-08 09:00N 38°19' E 121°43'612.3
2017-Jun-08 08:30N 38°21' E 121°36'612.7
2017-Jun-08 08:00N 38°23' E 121°28'612.6
2017-Jun-08 07:30N 38°25' E 121°20'712.2
2017-Jun-08 06:58N 38°26' E 121°12'  
2017-Jun-04 02:43N 40°02' E 121°20'1613.0
2017-Jun-04 01:29N 39°48' E 121°09'613.4
2017-Jun-04 01:00N 39°43' E 121°04'712.8
2017-Jun-04 00:27N 39°38' E 120°58'612.9
2017-Jun-03 23:59N 39°33' E 120°53'612.6
2017-Jun-03 23:29N 39°28' E 120°49'812.4
2017-Jun-03 22:51N 39°20' E 120°48'1111.9
2017-Jun-03 21:56N 39°09' E 120°48'511.8
2017-Jun-03 21:30N 39°04' E 120°48'611.7
2017-Jun-03 20:59N 38°58' E 120°48'2010.8
2017-Jun-03 19:06N 38°38' E 120°52'311.5
2017-Jun-03 18:52N 38°37' E 120°55'611.4
2017-Jun-03 18:19N 38°33' E 121°02'411.2
2017-Jun-03 18:00N 38°31' E 121°06'511.1
2017-Jun-03 17:30N 38°29' E 121°12'611.4
2017-Jun-03 17:00N 38°28' E 121°19'611.4
2017-Jun-03 16:30N 38°26' E 121°26'611.5
2017-Jun-03 16:00N 38°24' E 121°33'611.4
2017-Jun-03 15:30N 38°23' E 121°40'611.9
2017-Jun-03 15:00N 38°21' E 121°48'611.9
2017-Jun-03 14:30N 38°19' E 121°55'1211.9
2017-Jun-03 13:30N 38°15' E 122°09'611.9
2017-Jun-03 13:00N 38°14' E 122°16'711.8
2017-Jun-03 12:27N 38°11' E 122°24'511.8
2017-Jun-03 12:00N 38°10' E 122°31'611.8
2017-Jun-03 11:29N 38°08' E 122°38'1511.6
2017-Jun-03 10:13N 37°58' E 122°52'311.1
2017-Jun-03 09:58N 37°56' E 122°55'510.7
2017-Jun-03 09:29N 37°53' E 122°59'611.3
2017-Jun-03 08:58N 37°49' E 123°05'612.4
2017-Jun-03 08:30N 37°45' E 123°10'612.5
2017-Jun-03 08:00N 37°40' E 123°16'612.7
2017-Jun-03 07:30N 37°36' E 123°21'1011.9
2017-Jun-03 06:38N 37°26' E 123°25'213.0
2017-Jun-03 06:29N 37°24' E 123°25'24112.6
2017-Jun-02 11:19N 33°23' E 123°32'413.1
2017-Jun-02 11:00N 33°19' E 123°32'1713.0
2017-Jun-02 09:43N 33°03' E 123°33'4212.4
2017-Jun-02 06:18N 32°20' E 123°34'612.0
2017-Jun-02 05:46N 32°14' E 123°33'2011.9
2017-Jun-02 04:07N 31°54' E 123°34'1611.8
2017-Jun-02 02:47N 31°38' E 123°34'311.9
2017-Jun-02 02:30N 31°35' E 123°34'611.8
2017-Jun-02 01:59N 31°29' E 123°34'1012.1
2017-Jun-02 01:08N 31°19' E 123°34'212.4
2017-Jun-02 00:59N 31°17' E 123°34'612.5
2017-Jun-02 00:30N 31°11' E 123°34'612.6
2017-Jun-02 00:00N 31°04' E 123°34'1312.6
2017-Jun-01 22:56N 30°51' E 123°34'  

Dump ship's entire track history